Hamburg, Louisiana
Current Conditions -  °F | °C
As of 8:15 AM on Wednesday 28 Jan 2015 (Local Time) from KOPL Reporting Station
Clear Clear  
Wind Chill: 10°   Ceiling: Unl
Heat Index: 10°   Visibility: 10mi
Dew Point:   Wind: 3mph
Humidity: 66%   Direction: 160°SSE
Pressure: 30.26"   Gusts: NA
Location:  31.03°N, 91.93°W
Report Text: KOPL 281415Z AUTO 16003KT 10SM CLR 10/04 A3026 RMK AO2 T01000040
Loading
Personal Weather Stations






























Interactive Weather Map New forecast layout! Learn more

10-Day Weather Forecast

Advertisements
Track Severe Weather on mobile